sensor_id;sensor_type;location;lat;lon;timestamp;P1;durP1;ratioP1;P2;durP2;ratioP2
70228;SDS011;57617;51.988;5.854;2022-12-29T00:01:27;7.68;;;3.75;;
70228;SDS011;57617;51.988;5.854;2022-12-29T00:03:53;7.00;;;3.53;;
70228;SDS011;57617;51.988;5.854;2022-12-29T00:06:18;5.00;;;3.20;;
70228;SDS011;57617;51.988;5.854;2022-12-29T00:08:43;6.78;;;3.47;;
70228;SDS011;57617;51.988;5.854;2022-12-29T00:11:13;5.20;;;3.42;;
70228;SDS011;57617;51.988;5.854;2022-12-29T00:13:40;5.88;;;3.13;;
70228;SDS011;57617;51.988;5.854;2022-12-29T00:16:24;5.47;;;3.35;;
70228;SDS011;57617;51.988;5.854;2022-12-29T00:18:50;6.72;;;3.35;;
70228;SDS011;57617;51.988;5.854;2022-12-29T00:21:19;6.10;;;3.55;;
70228;SDS011;57617;51.988;5.854;2022-12-29T00:24:05;6.28;;;3.50;;
70228;SDS011;57617;51.988;5.854;2022-12-29T00:29:45;4.93;;;3.30;;
70228;SDS011;57617;51.988;5.854;2022-12-29T00:32:29;5.25;;;3.42;;
70228;SDS011;57617;51.988;5.854;2022-12-29T00:35:15;6.82;;;3.55;;
70228;SDS011;57617;51.988;5.854;2022-12-29T00:37:46;4.95;;;3.03;;
70228;SDS011;57617;51.988;5.854;2022-12-29T00:40:31;5.63;;;3.40;;
70228;SDS011;57617;51.988;5.854;2022-12-29T00:43:15;5.35;;;3.33;;
70228;SDS011;57617;51.988;5.854;2022-12-29T00:45:59;5.57;;;3.38;;
70228;SDS011;57617;51.988;5.854;2022-12-29T00:48:24;6.00;;;3.63;;
70228;SDS011;57617;51.988;5.854;2022-12-29T00:51:08;5.82;;;3.35;;
70228;SDS011;57617;51.988;5.854;2022-12-29T00:53:34;4.53;;;2.92;;
70228;SDS011;57617;51.988;5.854;2022-12-29T00:55:59;5.18;;;3.33;;
70228;SDS011;57617;51.988;5.854;2022-12-29T00:58:28;5.95;;;2.97;;
70228;SDS011;57617;51.988;5.854;2022-12-29T01:01:04;5.82;;;2.95;;
70228;SDS011;57617;51.988;5.854;2022-12-29T01:03:32;5.10;;;3.00;;
70228;SDS011;57617;51.988;5.854;2022-12-29T01:06:06;6.95;;;2.67;;
70228;SDS011;57617;51.988;5.854;2022-12-29T01:08:34;4.55;;;2.95;;
70228;SDS011;57617;51.988;5.854;2022-12-29T01:11:01;4.30;;;2.53;;
70228;SDS011;57617;51.988;5.854;2022-12-29T01:13:28;3.95;;;2.40;;
70228;SDS011;57617;51.988;5.854;2022-12-29T01:15:54;4.20;;;2.35;;
70228;SDS011;57617;51.988;5.854;2022-12-29T01:18:19;6.35;;;2.00;;
70228;SDS011;57617;51.988;5.854;2022-12-29T01:20:45;2.70;;;1.80;;
70228;SDS011;57617;51.988;5.854;2022-12-29T01:23:11;2.97;;;1.70;;
70228;SDS011;57617;51.988;5.854;2022-12-29T01:25:36;2.53;;;1.70;;
70228;SDS011;57617;51.988;5.854;2022-12-29T01:28:01;3.13;;;1.42;;
70228;SDS011;57617;51.988;5.854;2022-12-29T01:30:27;3.22;;;1.40;;
70228;SDS011;57617;51.988;5.854;2022-12-29T01:32:52;2.88;;;1.40;;
70228;SDS011;57617;51.988;5.854;2022-12-29T01:35:17;2.30;;;1.30;;
70228;SDS011;57617;51.988;5.854;2022-12-29T01:37:42;1.70;;;1.20;;
70228;SDS011;57617;51.988;5.854;2022-12-29T01:40:08;2.40;;;1.27;;
70228;SDS011;57617;51.988;5.854;2022-12-29T01:42:34;2.45;;;1.20;;
70228;SDS011;57617;51.988;5.854;2022-12-29T01:45:04;3.47;;;1.40;;
70228;SDS011;57617;51.988;5.854;2022-12-29T01:50:33;2.97;;;1.27;;
70228;SDS011;57617;51.988;5.854;2022-12-29T01:55:37;2.78;;;1.60;;
70228;SDS011;57617;51.988;5.854;2022-12-29T01:58:07;2.22;;;1.60;;
70228;SDS011;57617;51.988;5.854;2022-12-29T02:00:34;2.35;;;1.70;;
70228;SDS011;57617;51.988;5.854;2022-12-29T02:03:00;3.15;;;1.70;;
70228;SDS011;57617;51.988;5.854;2022-12-29T02:05:29;3.33;;;1.98;;
70228;SDS011;57617;51.988;5.854;2022-12-29T02:08:02;4.00;;;2.10;;
70228;SDS011;57617;51.988;5.854;2022-12-29T02:10:28;2.72;;;1.90;;
70228;SDS011;57617;51.988;5.854;2022-12-29T02:12:56;4.57;;;2.10;;
70228;SDS011;57617;51.988;5.854;2022-12-29T02:15:45;5.63;;;1.98;;
70228;SDS011;57617;51.988;5.854;2022-12-29T02:18:30;3.90;;;1.95;;
70228;SDS011;57617;51.988;5.854;2022-12-29T02:24:08;3.05;;;1.95;;
70228;SDS011;57617;51.988;5.854;2022-12-29T02:32:35;4.07;;;1.95;;
70228;SDS011;57617;51.988;5.854;2022-12-29T02:35:20;5.32;;;1.90;;
70228;SDS011;57617;51.988;5.854;2022-12-29T02:40:47;4.90;;;1.73;;
70228;SDS011;57617;51.988;5.854;2022-12-29T02:43:23;4.47;;;1.50;;
70228;SDS011;57617;51.988;5.854;2022-12-29T02:51:23;3.03;;;1.52;;
70228;SDS011;57617;51.988;5.854;2022-12-29T02:53:54;4.47;;;1.60;;
70228;SDS011;57617;51.988;5.854;2022-12-29T02:56:40;3.75;;;1.35;;
70228;SDS011;57617;51.988;5.854;2022-12-29T02:59:05;8.10;;;1.38;;
70228;SDS011;57617;51.988;5.854;2022-12-29T03:07:35;3.25;;;1.20;;
70228;SDS011;57617;51.988;5.854;2022-12-29T03:10:35;4.88;;;1.33;;
70228;SDS011;57617;51.988;5.854;2022-12-29T03:14:08;4.22;;;1.42;;
70228;SDS011;57617;51.988;5.854;2022-12-29T03:16:32;2.67;;;1.23;;
70228;SDS011;57617;51.988;5.854;2022-12-29T03:19:14;5.57;;;1.50;;
70228;SDS011;57617;51.988;5.854;2022-12-29T03:21:46;2.03;;;1.27;;
70228;SDS011;57617;51.988;5.854;2022-12-29T03:24:39;2.55;;;0.90;;
70228;SDS011;57617;51.988;5.854;2022-12-29T03:27:09;6.20;;;1.13;;
70228;SDS011;57617;51.988;5.854;2022-12-29T03:29:41;4.32;;;1.15;;
70228;SDS011;57617;51.988;5.854;2022-12-29T03:32:12;2.63;;;1.15;;
70228;SDS011;57617;51.988;5.854;2022-12-29T03:34:39;6.82;;;1.50;;
70228;SDS011;57617;51.988;5.854;2022-12-29T03:37:07;3.25;;;1.10;;
70228;SDS011;57617;51.988;5.854;2022-12-29T03:39:37;2.80;;;1.10;;
70228;SDS011;57617;51.988;5.854;2022-12-29T03:42:04;3.33;;;1.08;;
70228;SDS011;57617;51.988;5.854;2022-12-29T03:44:38;2.13;;;1.00;;
70228;SDS011;57617;51.988;5.854;2022-12-29T03:47:06;2.63;;;1.05;;
70228;SDS011;57617;51.988;5.854;2022-12-29T03:49:31;4.85;;;1.20;;
70228;SDS011;57617;51.988;5.854;2022-12-29T03:51:57;5.60;;;1.38;;
70228;SDS011;57617;51.988;5.854;2022-12-29T03:54:22;4.72;;;1.10;;
70228;SDS011;57617;51.988;5.854;2022-12-29T03:56:47;6.05;;;1.10;;
70228;SDS011;57617;51.988;5.854;2022-12-29T03:59:12;2.88;;;1.10;;
70228;SDS011;57617;51.988;5.854;2022-12-29T04:01:38;5.50;;;0.90;;
70228;SDS011;57617;51.988;5.854;2022-12-29T04:04:03;4.72;;;1.50;;
70228;SDS011;57617;51.988;5.854;2022-12-29T04:06:29;2.65;;;0.90;;
70228;SDS011;57617;51.988;5.854;2022-12-29T04:08:54;4.18;;;1.25;;
70228;SDS011;57617;51.988;5.854;2022-12-29T04:11:19;4.07;;;1.20;;
70228;SDS011;57617;51.988;5.854;2022-12-29T04:13:45;2.90;;;1.00;;
70228;SDS011;57617;51.988;5.854;2022-12-29T04:16:11;3.78;;;0.88;;
70228;SDS011;57617;51.988;5.854;2022-12-29T04:18:36;4.35;;;1.15;;
70228;SDS011;57617;51.988;5.854;2022-12-29T04:21:01;10.48;;;1.05;;
70228;SDS011;57617;51.988;5.854;2022-12-29T04:23:28;5.03;;;0.98;;
70228;SDS011;57617;51.988;5.854;2022-12-29T04:25:58;5.05;;;1.00;;
70228;SDS011;57617;51.988;5.854;2022-12-29T04:28:24;2.95;;;0.93;;
70228;SDS011;57617;51.988;5.854;2022-12-29T04:30:50;3.23;;;1.07;;
70228;SDS011;57617;51.988;5.854;2022-12-29T04:33:15;2.42;;;0.98;;
70228;SDS011;57617;51.988;5.854;2022-12-29T04:35:41;4.05;;;0.88;;
70228;SDS011;57617;51.988;5.854;2022-12-29T04:38:07;5.43;;;1.05;;
70228;SDS011;57617;51.988;5.854;2022-12-29T04:40:32;3.78;;;1.30;;
70228;SDS011;57617;51.988;5.854;2022-12-29T04:42:58;4.72;;;1.10;;
70228;SDS011;57617;51.988;5.854;2022-12-29T04:45:23;4.00;;;1.10;;
70228;SDS011;57617;51.988;5.854;2022-12-29T04:47:49;3.28;;;1.40;;
70228;SDS011;57617;51.988;5.854;2022-12-29T04:50:14;4.65;;;1.00;;
70228;SDS011;57617;51.988;5.854;2022-12-29T04:52:39;7.25;;;1.02;;
70228;SDS011;57617;51.988;5.854;2022-12-29T04:55:05;2.78;;;0.88;;
70228;SDS011;57617;51.988;5.854;2022-12-29T04:57:31;2.83;;;0.88;;
70228;SDS011;57617;51.988;5.854;2022-12-29T04:59:56;5.07;;;1.05;;
70228;SDS011;57617;51.988;5.854;2022-12-29T05:02:21;6.57;;;1.02;;
70228;SDS011;57617;51.988;5.854;2022-12-29T05:04:47;4.75;;;0.70;;
70228;SDS011;57617;51.988;5.854;2022-12-29T05:07:12;4.25;;;0.73;;
70228;SDS011;57617;51.988;5.854;2022-12-29T05:09:38;4.93;;;0.80;;
70228;SDS011;57617;51.988;5.854;2022-12-29T05:12:03;3.45;;;0.80;;
70228;SDS011;57617;51.988;5.854;2022-12-29T05:14:29;3.13;;;0.80;;
70228;SDS011;57617;51.988;5.854;2022-12-29T05:16:54;6.05;;;0.82;;
70228;SDS011;57617;51.988;5.854;2022-12-29T05:19:19;4.75;;;0.88;;
70228;SDS011;57617;51.988;5.854;2022-12-29T05:21:44;4.40;;;0.70;;
70228;SDS011;57617;51.988;5.854;2022-12-29T05:24:10;9.90;;;1.00;;
70228;SDS011;57617;51.988;5.854;2022-12-29T05:26:35;7.40;;;0.93;;
70228;SDS011;57617;51.988;5.854;2022-12-29T05:29:00;2.35;;;0.80;;
70228;SDS011;57617;51.988;5.854;2022-12-29T05:31:26;8.23;;;1.10;;
70228;SDS011;57617;51.988;5.854;2022-12-29T05:33:51;6.28;;;0.95;;
70228;SDS011;57617;51.988;5.854;2022-12-29T05:36:17;4.88;;;1.10;;
70228;SDS011;57617;51.988;5.854;2022-12-29T05:38:42;4.90;;;1.20;;
70228;SDS011;57617;51.988;5.854;2022-12-29T05:41:08;5.05;;;1.60;;
70228;SDS011;57617;51.988;5.854;2022-12-29T05:43:33;3.65;;;1.20;;
70228;SDS011;57617;51.988;5.854;2022-12-29T05:45:58;4.88;;;1.50;;
70228;SDS011;57617;51.988;5.854;2022-12-29T05:48:24;5.18;;;1.40;;
70228;SDS011;57617;51.988;5.854;2022-12-29T05:50:50;6.35;;;1.80;;
70228;SDS011;57617;51.988;5.854;2022-12-29T05:53:16;3.88;;;1.20;;
70228;SDS011;57617;51.988;5.854;2022-12-29T05:55:42;3.33;;;1.40;;
70228;SDS011;57617;51.988;5.854;2022-12-29T05:58:08;5.03;;;1.20;;
70228;SDS011;57617;51.988;5.854;2022-12-29T06:00:33;6.18;;;1.50;;
70228;SDS011;57617;51.988;5.854;2022-12-29T06:02:59;6.93;;;1.30;;
70228;SDS011;57617;51.988;5.854;2022-12-29T06:05:24;5.88;;;1.60;;
70228;SDS011;57617;51.988;5.854;2022-12-29T06:07:49;6.32;;;1.30;;
70228;SDS011;57617;51.988;5.854;2022-12-29T06:10:14;4.97;;;1.40;;
70228;SDS011;57617;51.988;5.854;2022-12-29T06:12:40;6.63;;;1.40;;
70228;SDS011;57617;51.988;5.854;2022-12-29T06:15:05;8.20;;;1.23;;
70228;SDS011;57617;51.988;5.854;2022-12-29T06:17:31;6.68;;;1.10;;
70228;SDS011;57617;51.988;5.854;2022-12-29T06:19:57;8.68;;;1.10;;
70228;SDS011;57617;51.988;5.854;2022-12-29T06:22:22;8.00;;;1.10;;
70228;SDS011;57617;51.988;5.854;2022-12-29T06:24:47;3.10;;;0.88;;
70228;SDS011;57617;51.988;5.854;2022-12-29T06:27:13;10.05;;;1.20;;
70228;SDS011;57617;51.988;5.854;2022-12-29T06:29:38;5.18;;;1.10;;
70228;SDS011;57617;51.988;5.854;2022-12-29T06:32:05;6.90;;;1.50;;
70228;SDS011;57617;51.988;5.854;2022-12-29T06:34:31;5.57;;;1.08;;
70228;SDS011;57617;51.988;5.854;2022-12-29T06:36:56;5.32;;;0.80;;
70228;SDS011;57617;51.988;5.854;2022-12-29T06:39:22;8.10;;;1.10;;
70228;SDS011;57617;51.988;5.854;2022-12-29T06:41:47;5.70;;;0.90;;
70228;SDS011;57617;51.988;5.854;2022-12-29T06:44:12;7.10;;;1.02;;
70228;SDS011;57617;51.988;5.854;2022-12-29T06:46:38;7.20;;;1.30;;
70228;SDS011;57617;51.988;5.854;2022-12-29T06:49:03;8.68;;;1.08;;
70228;SDS011;57617;51.988;5.854;2022-12-29T06:51:28;9.45;;;1.25;;
70228;SDS011;57617;51.988;5.854;2022-12-29T06:53:53;7.57;;;1.35;;
70228;SDS011;57617;51.988;5.854;2022-12-29T06:56:19;7.50;;;1.20;;
70228;SDS011;57617;51.988;5.854;2022-12-29T06:58:44;5.70;;;1.10;;
70228;SDS011;57617;51.988;5.854;2022-12-29T07:01:09;5.35;;;1.08;;
70228;SDS011;57617;51.988;5.854;2022-12-29T07:03:34;4.68;;;0.90;;
70228;SDS011;57617;51.988;5.854;2022-12-29T07:06:00;5.68;;;0.85;;
70228;SDS011;57617;51.988;5.854;2022-12-29T07:08:25;10.05;;;2.22;;
70228;SDS011;57617;51.988;5.854;2022-12-29T07:10:50;5.97;;;0.95;;
70228;SDS011;57617;51.988;5.854;2022-12-29T07:13:16;7.07;;;1.00;;
70228;SDS011;57617;51.988;5.854;2022-12-29T07:15:41;5.80;;;0.98;;
70228;SDS011;57617;51.988;5.854;2022-12-29T07:18:07;8.82;;;1.10;;
70228;SDS011;57617;51.988;5.854;2022-12-29T07:20:32;9.63;;;1.13;;
70228;SDS011;57617;51.988;5.854;2022-12-29T07:22:58;11.25;;;1.30;;
70228;SDS011;57617;51.988;5.854;2022-12-29T07:25:23;6.20;;;1.77;;
70228;SDS011;57617;51.988;5.854;2022-12-29T07:27:49;6.18;;;2.65;;
70228;SDS011;57617;51.988;5.854;2022-12-29T07:30:14;9.73;;;2.30;;
70228;SDS011;57617;51.988;5.854;2022-12-29T07:32:40;9.65;;;4.90;;
70228;SDS011;57617;51.988;5.854;2022-12-29T07:35:05;21.42;;;10.95;;
70228;SDS011;57617;51.988;5.854;2022-12-29T07:37:31;13.15;;;5.72;;
70228;SDS011;57617;51.988;5.854;2022-12-29T07:39:57;12.35;;;3.30;;
70228;SDS011;57617;51.988;5.854;2022-12-29T07:42:22;9.75;;;3.60;;
70228;SDS011;57617;51.988;5.854;2022-12-29T07:44:48;6.22;;;1.52;;
70228;SDS011;57617;51.988;5.854;2022-12-29T07:47:13;7.25;;;2.40;;
70228;SDS011;57617;51.988;5.854;2022-12-29T07:49:38;8.38;;;2.80;;
70228;SDS011;57617;51.988;5.854;2022-12-29T07:52:04;8.18;;;1.30;;
70228;SDS011;57617;51.988;5.854;2022-12-29T07:54:29;6.57;;;1.10;;
70228;SDS011;57617;51.988;5.854;2022-12-29T07:56:54;5.07;;;1.10;;
70228;SDS011;57617;51.988;5.854;2022-12-29T07:59:20;8.98;;;1.60;;
70228;SDS011;57617;51.988;5.854;2022-12-29T08:01:45;6.03;;;1.40;;
70228;SDS011;57617;51.988;5.854;2022-12-29T08:04:11;7.35;;;1.70;;
70228;SDS011;57617;51.988;5.854;2022-12-29T08:06:36;7.22;;;1.92;;
70228;SDS011;57617;51.988;5.854;2022-12-29T08:09:02;9.25;;;2.33;;
70228;SDS011;57617;51.988;5.854;2022-12-29T08:11:28;10.48;;;1.63;;
70228;SDS011;57617;51.988;5.854;2022-12-29T08:13:53;10.88;;;2.45;;
70228;SDS011;57617;51.988;5.854;2022-12-29T08:16:19;9.63;;;1.50;;
70228;SDS011;57617;51.988;5.854;2022-12-29T08:18:44;10.32;;;1.40;;
70228;SDS011;57617;51.988;5.854;2022-12-29T08:21:09;7.43;;;1.23;;
70228;SDS011;57617;51.988;5.854;2022-12-29T08:23:35;7.43;;;1.50;;
70228;SDS011;57617;51.988;5.854;2022-12-29T08:26:01;6.95;;;1.50;;
70228;SDS011;57617;51.988;5.854;2022-12-29T08:28:28;6.15;;;1.33;;
70228;SDS011;57617;51.988;5.854;2022-12-29T08:30:53;7.38;;;1.10;;
70228;SDS011;57617;51.988;5.854;2022-12-29T08:33:22;9.68;;;1.35;;
70228;SDS011;57617;51.988;5.854;2022-12-29T08:35:47;10.27;;;1.58;;
70228;SDS011;57617;51.988;5.854;2022-12-29T08:38:13;8.43;;;1.38;;
70228;SDS011;57617;51.988;5.854;2022-12-29T08:40:38;12.10;;;1.20;;
70228;SDS011;57617;51.988;5.854;2022-12-29T08:43:03;10.45;;;1.40;;
70228;SDS011;57617;51.988;5.854;2022-12-29T08:45:29;9.40;;;1.15;;
70228;SDS011;57617;51.988;5.854;2022-12-29T08:47:54;8.80;;;1.20;;
70228;SDS011;57617;51.988;5.854;2022-12-29T08:50:19;12.88;;;1.45;;
70228;SDS011;57617;51.988;5.854;2022-12-29T08:52:45;7.57;;;1.27;;
70228;SDS011;57617;51.988;5.854;2022-12-29T08:55:10;9.07;;;1.77;;
70228;SDS011;57617;51.988;5.854;2022-12-29T08:57:36;18.20;;;3.55;;
70228;SDS011;57617;51.988;5.854;2022-12-29T09:00:02;12.32;;;1.77;;
70228;SDS011;57617;51.988;5.854;2022-12-29T09:02:29;7.53;;;1.13;;
70228;SDS011;57617;51.988;5.854;2022-12-29T09:04:54;8.65;;;1.30;;
70228;SDS011;57617;51.988;5.854;2022-12-29T09:07:22;7.15;;;1.23;;
70228;SDS011;57617;51.988;5.854;2022-12-29T09:09:48;16.27;;;1.85;;
70228;SDS011;57617;51.988;5.854;2022-12-29T09:12:13;9.52;;;1.52;;
70228;SDS011;57617;51.988;5.854;2022-12-29T09:14:38;7.60;;;1.30;;
70228;SDS011;57617;51.988;5.854;2022-12-29T09:17:03;7.28;;;1.40;;
70228;SDS011;57617;51.988;5.854;2022-12-29T09:19:48;6.40;;;1.20;;
70228;SDS011;57617;51.988;5.854;2022-12-29T09:22:13;13.02;;;2.00;;
70228;SDS011;57617;51.988;5.854;2022-12-29T09:24:38;7.50;;;1.63;;
70228;SDS011;57617;51.988;5.854;2022-12-29T09:27:04;11.60;;;1.50;;
70228;SDS011;57617;51.988;5.854;2022-12-29T09:29:29;9.48;;;1.67;;
70228;SDS011;57617;51.988;5.854;2022-12-29T09:31:54;12.13;;;2.22;;
70228;SDS011;57617;51.988;5.854;2022-12-29T09:34:20;11.02;;;1.70;;
70228;SDS011;57617;51.988;5.854;2022-12-29T09:36:45;10.13;;;1.67;;
70228;SDS011;57617;51.988;5.854;2022-12-29T09:39:10;13.40;;;1.60;;
70228;SDS011;57617;51.988;5.854;2022-12-29T09:41:39;11.05;;;1.58;;
70228;SDS011;57617;51.988;5.854;2022-12-29T09:44:17;15.60;;;1.70;;
70228;SDS011;57617;51.988;5.854;2022-12-29T09:46:51;9.05;;;1.67;;
70228;SDS011;57617;51.988;5.854;2022-12-29T09:49:27;5.45;;;1.00;;
70228;SDS011;57617;51.988;5.854;2022-12-29T09:52:05;6.35;;;1.27;;
70228;SDS011;57617;51.988;5.854;2022-12-29T09:54:38;8.30;;;1.45;;
70228;SDS011;57617;51.988;5.854;2022-12-29T09:57:21;10.35;;;1.35;;
70228;SDS011;57617;51.988;5.854;2022-12-29T09:59:50;11.30;;;1.30;;
70228;SDS011;57617;51.988;5.854;2022-12-29T10:02:24;9.52;;;1.55;;
70228;SDS011;57617;51.988;5.854;2022-12-29T10:04:56;8.27;;;1.40;;
70228;SDS011;57617;51.988;5.854;2022-12-29T10:07:28;11.38;;;1.42;;
70228;SDS011;57617;51.988;5.854;2022-12-29T10:10:05;10.88;;;2.15;;
70228;SDS011;57617;51.988;5.854;2022-12-29T10:18:08;10.85;;;1.83;;
70228;SDS011;57617;51.988;5.854;2022-12-29T10:23:47;15.85;;;2.28;;
70228;SDS011;57617;51.988;5.854;2022-12-29T10:26:23;32.35;;;6.82;;
70228;SDS011;57617;51.988;5.854;2022-12-29T10:28:53;15.63;;;2.65;;
70228;SDS011;57617;51.988;5.854;2022-12-29T10:31:23;8.45;;;3.08;;
70228;SDS011;57617;51.988;5.854;2022-12-29T10:33:57;5.82;;;1.83;;
70228;SDS011;57617;51.988;5.854;2022-12-29T10:36:35;12.65;;;1.83;;
70228;SDS011;57617;51.988;5.854;2022-12-29T10:39:06;7.70;;;1.50;;
70228;SDS011;57617;51.988;5.854;2022-12-29T10:41:51;8.27;;;1.77;;
70228;SDS011;57617;51.988;5.854;2022-12-29T10:44:24;8.00;;;1.52;;
70228;SDS011;57617;51.988;5.854;2022-12-29T10:46:58;8.48;;;1.90;;
70228;SDS011;57617;51.988;5.854;2022-12-29T10:49:27;12.85;;;1.90;;
70228;SDS011;57617;51.988;5.854;2022-12-29T10:51:55;10.38;;;2.00;;
70228;SDS011;57617;51.988;5.854;2022-12-29T10:54:27;7.00;;;2.00;;
70228;SDS011;57617;51.988;5.854;2022-12-29T10:57:46;9.50;;;1.80;;
70228;SDS011;57617;51.988;5.854;2022-12-29T11:02:43;10.90;;;2.10;;
70228;SDS011;57617;51.988;5.854;2022-12-29T11:08:02;11.25;;;2.17;;
70228;SDS011;57617;51.988;5.854;2022-12-29T11:13:04;17.48;;;2.60;;
70228;SDS011;57617;51.988;5.854;2022-12-29T11:15:41;13.38;;;2.60;;
70228;SDS011;57617;51.988;5.854;2022-12-29T11:18:18;12.38;;;2.67;;
70228;SDS011;57617;51.988;5.854;2022-12-29T11:20:47;13.18;;;3.10;;
70228;SDS011;57617;51.988;5.854;2022-12-29T11:23:29;11.82;;;2.83;;
70228;SDS011;57617;51.988;5.854;2022-12-29T11:26:06;10.77;;;2.85;;
70228;SDS011;57617;51.988;5.854;2022-12-29T11:28:35;13.98;;;2.80;;
70228;SDS011;57617;51.988;5.854;2022-12-29T11:31:02;11.70;;;2.90;;
70228;SDS011;57617;51.988;5.854;2022-12-29T11:33:29;17.83;;;3.30;;
70228;SDS011;57617;51.988;5.854;2022-12-29T11:38:35;17.15;;;3.85;;
70228;SDS011;57617;51.988;5.854;2022-12-29T11:41:04;16.15;;;3.50;;
70228;SDS011;57617;51.988;5.854;2022-12-29T11:43:31;12.05;;;3.55;;
70228;SDS011;57617;51.988;5.854;2022-12-29T11:46:02;17.77;;;4.00;;
70228;SDS011;57617;51.988;5.854;2022-12-29T11:48:46;13.98;;;3.55;;
70228;SDS011;57617;51.988;5.854;2022-12-29T11:51:13;13.52;;;3.45;;
70228;SDS011;57617;51.988;5.854;2022-12-29T11:53:47;18.05;;;4.35;;
70228;SDS011;57617;51.988;5.854;2022-12-29T11:56:17;16.15;;;4.20;;
70228;SDS011;57617;51.988;5.854;2022-12-29T11:58:47;15.88;;;4.00;;
70228;SDS011;57617;51.988;5.854;2022-12-29T12:01:20;17.20;;;4.05;;
70228;SDS011;57617;51.988;5.854;2022-12-29T12:04:10;17.13;;;4.15;;
70228;SDS011;57617;51.988;5.854;2022-12-29T12:06:47;13.57;;;3.15;;
70228;SDS011;57617;51.988;5.854;2022-12-29T12:09:24;17.10;;;3.50;;
70228;SDS011;57617;51.988;5.854;2022-12-29T12:11:53;11.00;;;3.45;;
70228;SDS011;57617;51.988;5.854;2022-12-29T12:14:23;11.82;;;3.20;;
70228;SDS011;57617;51.988;5.854;2022-12-29T12:16:56;12.65;;;3.60;;
70228;SDS011;57617;51.988;5.854;2022-12-29T12:22:28;15.93;;;3.63;;
70228;SDS011;57617;51.988;5.854;2022-12-29T12:25:02;10.52;;;3.33;;
70228;SDS011;57617;51.988;5.854;2022-12-29T12:27:37;22.27;;;3.60;;
70228;SDS011;57617;51.988;5.854;2022-12-29T12:30:15;14.43;;;3.88;;
70228;SDS011;57617;51.988;5.854;2022-12-29T12:32:58;15.38;;;3.75;;
70228;SDS011;57617;51.988;5.854;2022-12-29T12:35:42;15.32;;;3.78;;
70228;SDS011;57617;51.988;5.854;2022-12-29T12:41:28;20.67;;;3.83;;
70228;SDS011;57617;51.988;5.854;2022-12-29T12:46:52;12.52;;;3.58;;
70228;SDS011;57617;51.988;5.854;2022-12-29T13:00:22;19.20;;;6.40;;
70228;SDS011;57617;51.988;5.854;2022-12-29T13:12:00;14.25;;;3.97;;
70228;SDS011;57617;51.988;5.854;2022-12-29T13:20:10;16.75;;;5.72;;
70228;SDS011;57617;51.988;5.854;2022-12-29T13:28:41;18.50;;;3.63;;
70228;SDS011;57617;51.988;5.854;2022-12-29T13:31:20;13.50;;;3.95;;
70228;SDS011;57617;51.988;5.854;2022-12-29T13:37:04;12.27;;;3.58;;
70228;SDS011;57617;51.988;5.854;2022-12-29T13:39:39;16.38;;;3.70;;
70228;SDS011;57617;51.988;5.854;2022-12-29T13:42:08;13.98;;;3.28;;
70228;SDS011;57617;51.988;5.854;2022-12-29T13:47:29;15.95;;;3.47;;
70228;SDS011;57617;51.988;5.854;2022-12-29T13:50:02;14.18;;;3.47;;
70228;SDS011;57617;51.988;5.854;2022-12-29T13:55:32;18.38;;;3.10;;
70228;SDS011;57617;51.988;5.854;2022-12-29T14:00:52;12.02;;;3.22;;
70228;SDS011;57617;51.988;5.854;2022-12-29T14:08:54;9.20;;;2.95;;
70228;SDS011;57617;51.988;5.854;2022-12-29T14:11:23;20.55;;;3.40;;
70228;SDS011;57617;51.988;5.854;2022-12-29T14:13:55;14.07;;;3.60;;
70228;SDS011;57617;51.988;5.854;2022-12-29T14:16:24;15.75;;;3.40;;
70228;SDS011;57617;51.988;5.854;2022-12-29T14:18:52;11.05;;;2.92;;
70228;SDS011;57617;51.988;5.854;2022-12-29T14:21:20;8.63;;;2.40;;
70228;SDS011;57617;51.988;5.854;2022-12-29T14:23:49;8.55;;;2.08;;
70228;SDS011;57617;51.988;5.854;2022-12-29T14:26:17;4.90;;;1.65;;
70228;SDS011;57617;51.988;5.854;2022-12-29T14:31:56;3.22;;;1.30;;
70228;SDS011;57617;51.988;5.854;2022-12-29T14:44:48;5.43;;;2.08;;
70228;SDS011;57617;51.988;5.854;2022-12-29T14:49:56;7.72;;;2.30;;
70228;SDS011;57617;51.988;5.854;2022-12-29T14:52:29;7.07;;;2.10;;
70228;SDS011;57617;51.988;5.854;2022-12-29T14:54:57;5.30;;;1.77;;
70228;SDS011;57617;51.988;5.854;2022-12-29T14:57:35;10.05;;;2.03;;
70228;SDS011;57617;51.988;5.854;2022-12-29T15:00:05;10.02;;;2.42;;
70228;SDS011;57617;51.988;5.854;2022-12-29T15:02:40;5.88;;;1.88;;
70228;SDS011;57617;51.988;5.854;2022-12-29T15:07:56;10.35;;;2.20;;
70228;SDS011;57617;51.988;5.854;2022-12-29T15:10:23;13.48;;;3.03;;
70228;SDS011;57617;51.988;5.854;2022-12-29T15:12:53;11.05;;;2.90;;
70228;SDS011;57617;51.988;5.854;2022-12-29T15:15:21;7.40;;;2.58;;
70228;SDS011;57617;51.988;5.854;2022-12-29T15:17:48;11.90;;;2.80;;
70228;SDS011;57617;51.988;5.854;2022-12-29T15:20:17;12.48;;;3.33;;
70228;SDS011;57617;51.988;5.854;2022-12-29T15:22:45;10.13;;;2.42;;
70228;SDS011;57617;51.988;5.854;2022-12-29T15:25:15;14.50;;;3.10;;
70228;SDS011;57617;51.988;5.854;2022-12-29T15:27:43;18.00;;;7.07;;
70228;SDS011;57617;51.988;5.854;2022-12-29T15:30:15;14.98;;;3.90;;
70228;SDS011;57617;51.988;5.854;2022-12-29T15:32:42;20.80;;;4.32;;
70228;SDS011;57617;51.988;5.854;2022-12-29T15:35:25;14.32;;;4.10;;
70228;SDS011;57617;51.988;5.854;2022-12-29T15:38:12;17.08;;;5.72;;
70228;SDS011;57617;51.988;5.854;2022-12-29T15:40:40;11.80;;;3.20;;
70228;SDS011;57617;51.988;5.854;2022-12-29T15:45:46;16.35;;;4.68;;
70228;SDS011;57617;51.988;5.854;2022-12-29T15:48:15;12.20;;;3.17;;
70228;SDS011;57617;51.988;5.854;2022-12-29T15:50:44;16.77;;;3.88;;
70228;SDS011;57617;51.988;5.854;2022-12-29T15:53:11;14.02;;;3.55;;
70228;SDS011;57617;51.988;5.854;2022-12-29T15:55:40;12.45;;;3.45;;
70228;SDS011;57617;51.988;5.854;2022-12-29T15:58:20;15.13;;;2.83;;
70228;SDS011;57617;51.988;5.854;2022-12-29T16:00:51;8.38;;;3.25;;
70228;SDS011;57617;51.988;5.854;2022-12-29T16:03:19;15.73;;;3.50;;
70228;SDS011;57617;51.988;5.854;2022-12-29T16:05:50;14.73;;;2.58;;
70228;SDS011;57617;51.988;5.854;2022-12-29T16:08:37;16.65;;;3.78;;
70228;SDS011;57617;51.988;5.854;2022-12-29T16:11:17;11.15;;;2.80;;
70228;SDS011;57617;51.988;5.854;2022-12-29T16:14:06;6.72;;;2.35;;
70228;SDS011;57617;51.988;5.854;2022-12-29T16:16:36;11.55;;;3.10;;
70228;SDS011;57617;51.988;5.854;2022-12-29T16:19:10;9.65;;;3.10;;
70228;SDS011;57617;51.988;5.854;2022-12-29T16:21:49;13.82;;;3.38;;
70228;SDS011;57617;51.988;5.854;2022-12-29T16:24:16;6.30;;;2.60;;
70228;SDS011;57617;51.988;5.854;2022-12-29T16:26:46;11.52;;;2.83;;
70228;SDS011;57617;51.988;5.854;2022-12-29T16:29:13;18.27;;;4.10;;
70228;SDS011;57617;51.988;5.854;2022-12-29T16:34:24;9.55;;;2.85;;
70228;SDS011;57617;51.988;5.854;2022-12-29T16:39:21;11.80;;;3.13;;
70228;SDS011;57617;51.988;5.854;2022-12-29T16:41:59;9.18;;;2.83;;
70228;SDS011;57617;51.988;5.854;2022-12-29T16:46:58;12.55;;;3.17;;
70228;SDS011;57617;51.988;5.854;2022-12-29T16:49:27;10.85;;;3.13;;
70228;SDS011;57617;51.988;5.854;2022-12-29T16:51:53;7.22;;;2.60;;
70228;SDS011;57617;51.988;5.854;2022-12-29T16:54:32;21.33;;;6.43;;
70228;SDS011;57617;51.988;5.854;2022-12-29T16:57:00;8.77;;;2.33;;
70228;SDS011;57617;51.988;5.854;2022-12-29T16:59:40;9.20;;;2.20;;
70228;SDS011;57617;51.988;5.854;2022-12-29T17:02:16;11.93;;;2.50;;
70228;SDS011;57617;51.988;5.854;2022-12-29T17:04:46;8.95;;;2.47;;
70228;SDS011;57617;51.988;5.854;2022-12-29T17:07:17;8.95;;;2.45;;
70228;SDS011;57617;51.988;5.854;2022-12-29T17:09:47;17.48;;;5.22;;
70228;SDS011;57617;51.988;5.854;2022-12-29T17:12:17;13.63;;;4.78;;
70228;SDS011;57617;51.988;5.854;2022-12-29T17:15:11;5.50;;;1.83;;
70228;SDS011;57617;51.988;5.854;2022-12-29T17:17:46;9.25;;;2.35;;